Somerville, Alabama
Current Conditions -  °F | °C
As of 4:53 AM on Wednesday 26 Nov 2014 (Local Time) from KHSV Reporting Station
Clear Clear  
Wind Chill: 29°   Ceiling: Unl
Heat Index: 33°   Visibility: 10mi
Dew Point: 26°   Wind: 5mph
Humidity: 75%   Direction: 290°WNW
Pressure: 30.12"   Gusts: NA
Location:  34.47°N, 86.8°W
Report Text: KHSV 261053Z AUTO 29004KT 10SM CLR 01/M03 A3012 RMK AO2 SLP201 T00061033
Loading
Personal Weather Stations






























Interactive Weather Map New forecast layout! Learn more

10-Day Weather Forecast

Advertisements
Track Severe Weather on mobile